Ada, Michigan
Current Conditions -  °F | °C
As of 7:53 AM on Saturday 20 Dec 2014 (Local Time) from KGRR Reporting Station
Broken Clouds Broken Clouds  
Wind Chill: 19°   Ceiling: 20000
Heat Index: 19°   Visibility: 7mi
Dew Point: 15°   Wind: 0mph
Humidity: 85%   Direction: NA
Pressure: 30.28"   Gusts: NA
Location:  42.95°N, 85.49°W
Report Text: KGRR 201253Z 00000KT 7SM SCT030 BKN200 M07/M09 A3028 RMK AO2 SLP268 T10721094
Loading
Personal Weather Stations






























Interactive Weather Map New forecast layout! Learn more

10-Day Weather Forecast

Advertisements
Track Severe Weather on mobile